Time;durP1;ratioP1;P1;durP2;ratioP2;P2;SDS_P1;SDS_P2;PMS_P1;PMS_P2;Temp;Humidity;BMP_temperature;BMP_pressure;BME280_temperature;BME280_humidity;BME280_pressure;Samples;Min_cycle;Max_cycle;Signal;HPM_P1;HPM_P2
2022/04/30 00:00:40;;;;;;;12.30;4.97;;;7.20;99.90;;;;;;5052579;22;20091;-69
2022/04/30 00:03:06;;;;;;;;;;;7.20;99.90;;;;;;5018480;28;20045;-69
2022/04/30 00:05:33;;;;;;;10.10;4.57;;;7.10;99.90;;;;;;5037589;28;19920;-69
2022/04/30 00:08:03;;;;;;;11.98;4.97;;;7.20;99.90;;;;;;5021995;28;20386;-69
2022/04/30 00:10:30;;;;;;;15.48;5.70;;;7.10;99.90;;;;;;5008681;28;20108;-69
2022/04/30 00:12:56;;;;;;;12.93;4.65;;;7.10;99.90;;;;;;5009536;28;20092;-69
2022/04/30 00:15:22;;;;;;;7.30;3.97;;;7.10;99.90;;;;;;5017648;28;20287;-69
2022/04/30 00:17:47;;;;;;;6.57;4.27;;;7.10;99.90;;;;;;5030879;28;20069;-69
2022/04/30 00:20:13;;;;;;;6.63;4.10;;;7.10;99.90;;;;;;5024721;28;20040;-69
2022/04/30 00:22:39;;;;;;;9.00;4.23;;;7.00;99.90;;;;;;5021507;28;20121;-69
2022/04/30 00:25:05;;;;;;;9.30;4.47;;;7.10;99.90;;;;;;5009838;28;20194;-69
2022/04/30 00:27:34;;;;;;;11.13;4.50;;;7.00;99.90;;;;;;5015956;28;20040;-69
2022/04/30 00:30:00;;;;;;;12.85;5.68;;;7.00;99.90;;;;;;4998021;28;20525;-69
2022/04/30 00:32:26;;;;;;;7.75;4.38;;;6.90;99.90;;;;;;4993775;28;20042;-69
2022/04/30 00:34:52;;;;;;;12.97;4.50;;;7.00;99.90;;;;;;5016566;28;20402;-69
2022/04/30 00:37:17;;;;;;;8.60;4.67;;;7.00;99.90;;;;;;4985966;28;20406;-69
2022/04/30 00:39:43;;;;;;;9.53;4.50;;;7.00;99.90;;;;;;5009378;28;20041;-69
2022/04/30 00:42:14;;;;;;;10.82;4.82;;;6.90;99.90;;;;;;5000275;28;20053;-69
2022/04/30 00:44:39;;;;;;;8.13;4.85;;;6.90;99.90;;;;;;5005769;28;20096;-69
2022/04/30 00:47:05;;;;;;;10.63;4.27;;;6.90;99.90;;;;;;5024316;28;20034;-69
2022/04/30 00:49:31;;;;;;;9.90;4.43;;;6.90;99.90;;;;;;5019211;28;20040;-69
2022/04/30 00:52:02;;;;;;;7.83;4.33;;;6.90;99.90;;;;;;5002678;28;20038;-69
2022/04/30 00:54:33;;;;;;;10.68;5.10;;;6.80;99.90;;;;;;5026768;28;20099;-69
2022/04/30 00:57:02;;;;;;;10.30;4.80;;;6.90;99.90;;;;;;5011305;28;20498;-69
2022/04/30 00:59:29;;;;;;;9.43;4.90;;;6.90;99.90;;;;;;4999930;28;20051;-69
2022/04/30 01:01:59;;;;;;;9.80;4.28;;;6.80;99.90;;;;;;5017148;28;20041;-69
2022/04/30 01:04:25;;;;;;;7.90;4.38;;;6.80;99.90;;;;;;5019941;28;20038;-69
2022/04/30 01:07:01;;;;;;;11.57;4.93;;;6.90;99.90;;;;;;5017037;28;20045;-69
2022/04/30 01:09:31;;;;;;;11.13;4.03;;;6.80;99.90;;;;;;5023038;28;20091;-69
2022/04/30 01:12:03;;;;;;;8.63;3.55;;;6.80;99.90;;;;;;5020728;28;20046;-69
2022/04/30 01:14:31;;;;;;;7.43;4.05;;;6.80;99.90;;;;;;5021510;28;20049;-69
2022/04/30 01:16:57;;;;;;;7.68;4.32;;;6.80;99.90;;;;;;5003046;28;20053;-69
2022/04/30 01:19:27;;;;;;;8.20;4.32;;;6.80;99.90;;;;;;5018213;28;20038;-69
2022/04/30 01:21:56;;;;;;;7.53;4.22;;;6.80;99.90;;;;;;5027012;28;20034;-69
2022/04/30 01:24:24;;;;;;;9.82;4.45;;;6.80;99.90;;;;;;5002902;28;20123;-69
2022/04/30 01:26:51;;;;;;;6.28;4.10;;;6.80;99.90;;;;;;5010364;28;20087;-69
2022/04/30 01:29:19;;;;;;;14.38;5.03;;;6.80;99.90;;;;;;5013656;28;20089;-69
2022/04/30 01:37:23;;;;;;;7.13;4.40;;;6.80;99.90;;;;;;5023589;28;20049;-69
2022/04/30 01:40:00;;;;;;;10.50;4.40;;;6.90;99.90;;;;;;5020204;28;20045;-69
2022/04/30 01:42:29;;;;;;;10.73;5.10;;;6.90;99.90;;;;;;5021781;28;20045;-69
2022/04/30 01:44:57;;;;;;;9.23;4.28;;;6.90;99.90;;;;;;5017664;28;20315;-69
2022/04/30 01:47:24;;;;;;;10.10;4.50;;;6.80;99.90;;;;;;5020328;28;20103;-69
2022/04/30 01:49:50;;;;;;;10.00;4.95;;;6.80;99.90;;;;;;5004459;28;20033;-69
2022/04/30 01:52:16;;;;;;;9.73;5.05;;;6.80;99.90;;;;;;5022909;28;20033;-69
2022/04/30 01:54:42;;;;;;;13.25;4.70;;;6.80;99.90;;;;;;5023774;28;20501;-69
2022/04/30 01:57:08;;;;;;;12.07;4.93;;;6.80;99.90;;;;;;5004515;28;20295;-73
2022/04/30 01:59:34;;;;;;;8.27;4.60;;;6.80;99.90;;;;;;5004044;28;20128;-69
2022/04/30 02:02:02;;;;;;;11.38;5.13;;;6.80;99.90;;;;;;5019079;28;20042;-68
2022/04/30 02:04:30;;;;;;;10.65;4.90;;;6.80;99.90;;;;;;5023546;28;20046;-68
2022/04/30 02:06:59;;;;;;;8.90;4.75;;;6.80;99.90;;;;;;5020425;28;20036;-69
2022/04/30 02:09:28;;;;;;;11.25;4.57;;;6.80;99.90;;;;;;5020483;28;20084;-68
2022/04/30 02:11:56;;;;;;;12.93;4.65;;;6.80;99.90;;;;;;5005567;28;20123;-68
2022/04/30 02:14:22;;;;;;;11.43;5.55;;;6.80;99.90;;;;;;5020362;28;20042;-68
2022/04/30 02:16:48;;;;;;;12.05;5.05;;;6.80;99.90;;;;;;4983017;28;20155;-68
2022/04/30 02:19:15;;;;;;;9.13;4.23;;;6.80;99.90;;;;;;5014983;28;20497;-68
2022/04/30 02:21:41;;;;;;;7.40;4.20;;;6.80;99.90;;;;;;5022632;28;20416;-68
2022/04/30 02:24:07;;;;;;;10.18;4.65;;;6.80;99.90;;;;;;5019639;28;20596;-68
2022/04/30 02:26:33;;;;;;;9.75;4.43;;;6.90;99.90;;;;;;5004330;28;20046;-69
2022/04/30 02:28:59;;;;;;;7.75;3.95;;;6.80;99.90;;;;;;5017651;28;20082;-69
2022/04/30 02:31:26;;;;;;;11.77;4.70;;;6.90;99.90;;;;;;5020471;28;20109;-68
2022/04/30 02:33:56;;;;;;;8.68;4.55;;;6.90;99.90;;;;;;5017433;28;20050;-69
2022/04/30 02:36:30;;;;;;;9.70;4.20;;;7.00;99.90;;;;;;4999988;28;20069;-68
2022/04/30 02:38:57;;;;;;;7.72;4.28;;;7.00;99.90;;;;;;5027434;28;20395;-68
2022/04/30 02:41:23;;;;;;;;;;;7.00;99.90;;;;;;5028129;28;20045;-67
2022/04/30 02:43:52;;;;;;;12.68;5.20;;;7.00;99.90;;;;;;5022965;28;20121;-67
2022/04/30 02:46:20;;;;;;;14.60;4.85;;;7.00;99.90;;;;;;5021875;28;20034;-67
2022/04/30 02:48:46;;;;;;;12.02;5.07;;;7.00;99.90;;;;;;5035841;28;20078;-67
2022/04/30 02:51:14;;;;;;;9.25;4.50;;;7.00;99.90;;;;;;5024449;28;20172;-67
2022/04/30 02:53:40;;;;;;;6.88;4.28;;;7.00;99.90;;;;;;5025155;28;20406;-67
2022/04/30 02:56:06;;;;;;;11.60;4.27;;;7.00;99.90;;;;;;5015168;28;20036;-67
2022/04/30 03:01:16;;;;;;;14.23;6.03;;;7.00;99.90;;;;;;5016974;28;20056;-67
2022/04/30 03:03:42;;;;;;;9.68;5.15;;;7.00;99.90;;;;;;5023644;28;20088;-67
2022/04/30 03:06:09;;;;;;;8.05;4.53;;;7.00;99.90;;;;;;5020912;28;20065;-67
2022/04/30 03:08:35;;;;;;;7.60;4.53;;;7.00;99.90;;;;;;5000802;28;20037;-68
2022/04/30 03:11:03;;;;;;;10.10;4.97;;;7.00;99.90;;;;;;5022720;28;20049;-68
2022/04/30 03:13:29;;;;;;;10.27;4.50;;;7.00;99.90;;;;;;5021886;28;20041;-68
2022/04/30 03:15:56;;;;;;;8.27;4.27;;;7.00;99.90;;;;;;5014204;28;20213;-67
2022/04/30 03:23:38;;;;;;;10.15;5.32;;;7.10;99.90;;;;;;5020449;28;20498;-68
2022/04/30 03:26:08;;;;;;;5.95;3.95;;;7.10;99.90;;;;;;5007331;28;20034;-67
2022/04/30 03:28:38;;;;;;;8.45;4.47;;;7.10;99.90;;;;;;5013894;28;20041;-67
2022/04/30 03:31:05;;;;;;;8.25;4.38;;;7.10;99.90;;;;;;4987934;28;20041;-67
2022/04/30 03:33:30;;;;;;;12.00;4.88;;;7.10;99.90;;;;;;5010820;28;20135;-67
2022/04/30 03:35:56;;;;;;;6.85;4.38;;;7.10;99.90;;;;;;5018709;28;20074;-68
2022/04/30 03:38:22;;;;;;;11.17;4.10;;;7.10;99.90;;;;;;5014195;28;20172;-68
2022/04/30 03:40:48;;;;;;;7.38;4.35;;;7.00;99.90;;;;;;5018806;28;20034;-68
2022/04/30 03:43:15;;;;;;;6.57;4.00;;;7.10;99.90;;;;;;5008565;28;20411;-67
2022/04/30 03:45:42;;;;;;;7.20;4.03;;;7.10;99.90;;;;;;5023357;28;20363;-68
2022/04/30 03:48:08;;;;;;;9.68;4.25;;;7.10;99.90;;;;;;5022839;28;20216;-68
2022/04/30 03:50:34;;;;;;;9.23;4.85;;;7.10;99.90;;;;;;5024571;28;20266;-68
2022/04/30 03:53:00;;;;;;;14.52;4.75;;;7.10;99.90;;;;;;5028300;28;20040;-68
2022/04/30 03:55:26;;;;;;;7.97;4.90;;;7.10;99.90;;;;;;5024393;28;20073;-68
2022/04/30 03:57:53;;;;;;;10.25;5.47;;;7.10;99.90;;;;;;5023088;28;20048;-67
2022/04/30 04:00:19;;;;;;;6.85;4.55;;;7.20;99.90;;;;;;5024517;28;20037;-68
2022/04/30 04:02:45;;;;;;;8.77;4.67;;;7.20;99.90;;;;;;5025179;28;20034;-67
2022/04/30 04:05:12;;;;;;;5.75;3.92;;;7.20;99.90;;;;;;4997911;28;20512;-67
2022/04/30 04:07:39;;;;;;;8.80;4.75;;;7.20;99.90;;;;;;5019578;28;20052;-67
2022/04/30 04:10:05;;;;;;;;;;;7.20;99.90;;;;;;5028362;28;20417;-67
2022/04/30 04:12:30;;;;;;;8.32;4.85;;;7.30;99.90;;;;;;5003586;28;19918;-67
2022/04/30 04:17:41;;;;;;;9.20;4.38;;;7.30;99.90;;;;;;5022544;28;20188;-67
2022/04/30 04:20:13;;;;;;;9.32;4.93;;;7.30;99.90;;;;;;5023317;28;20045;-68
2022/04/30 04:22:39;;;;;;;8.70;4.63;;;7.30;99.90;;;;;;5022257;28;20171;-67
2022/04/30 04:27:55;;;;;;;7.32;4.00;;;7.40;99.90;;;;;;5003235;28;20405;-68
2022/04/30 04:30:22;;;;;;;8.05;3.90;;;7.40;99.90;;;;;;5013917;28;20353;-67
2022/04/30 04:32:48;;;;;;;8.38;4.07;;;7.50;99.90;;;;;;5027789;28;20069;-65
2022/04/30 04:35:14;;;;;;;12.98;4.75;;;7.50;99.90;;;;;;5003151;28;20065;-65
2022/04/30 04:37:40;;;;;;;;;;;7.50;99.90;;;;;;5016196;28;20045;-65
2022/04/30 04:40:07;;;;;;;12.20;4.45;;;7.50;99.90;;;;;;4997960;28;20289;-65
2022/04/30 04:42:33;;;;;;;6.80;4.70;;;7.50;99.90;;;;;;5018521;28;20037;-65
2022/04/30 04:44:59;;;;;;;11.00;4.27;;;7.60;99.90;;;;;;5018341;28;20064;-65
2022/04/30 04:47:24;;;;;;;7.07;4.17;;;7.60;99.90;;;;;;5008391;28;20029;-65
2022/04/30 04:49:50;;;;;;;8.50;4.70;;;7.60;99.90;;;;;;5006294;28;20195;-65
2022/04/30 04:52:16;;;;;;;6.53;3.93;;;7.60;99.90;;;;;;5025679;28;20037;-65
2022/04/30 04:54:41;;;;;;;8.97;4.77;;;7.60;99.90;;;;;;5025047;28;20041;-65
2022/04/30 04:57:07;;;;;;;7.73;4.77;;;7.70;99.90;;;;;;5006768;28;20237;-65
2022/04/30 04:59:32;;;;;;;7.27;4.40;;;7.70;99.90;;;;;;5012785;28;20884;-65
2022/04/30 05:01:59;;;;;;;7.57;4.67;;;7.70;99.90;;;;;;5002174;28;20048;-65
2022/04/30 05:04:24;;;;;;;11.57;4.90;;;7.80;99.90;;;;;;5021553;28;20037;-65
2022/04/30 05:06:51;;;;;;;8.70;4.43;;;7.80;99.90;;;;;;5021219;28;20505;-65
2022/04/30 05:09:17;;;;;;;9.95;4.97;;;7.80;99.90;;;;;;4994388;28;20196;-65
2022/04/30 05:11:43;;;;;;;11.70;4.10;;;7.90;99.90;;;;;;5014900;28;20561;-65
2022/04/30 05:14:09;;;;;;;10.73;4.70;;;7.90;99.90;;;;;;5028459;28;20102;-65
2022/04/30 05:16:34;;;;;;;7.35;4.85;;;7.90;99.90;;;;;;5013997;28;20122;-65
2022/04/30 05:19:00;;;;;;;6.50;3.93;;;8.00;99.90;;;;;;5023007;28;20045;-65
2022/04/30 05:21:25;;;;;;;8.20;4.63;;;8.00;99.90;;;;;;5021311;28;20037;-65
2022/04/30 05:23:51;;;;;;;9.03;5.03;;;8.00;99.90;;;;;;5017456;28;20363;-65
2022/04/30 05:26:17;;;;;;;10.20;5.30;;;8.00;99.90;;;;;;5006518;28;20116;-65
2022/04/30 05:28:42;;;;;;;10.80;4.77;;;8.10;99.90;;;;;;5014004;28;20061;-65
2022/04/30 05:31:09;;;;;;;10.30;4.60;;;8.10;99.90;;;;;;5018807;28;20418;-65
2022/04/30 05:33:35;;;;;;;9.88;5.20;;;8.20;99.90;;;;;;5005745;28;20056;-65
2022/04/30 05:36:02;;;;;;;10.07;5.10;;;8.10;99.90;;;;;;5013172;28;20041;-65
2022/04/30 05:38:27;;;;;;;6.93;4.55;;;8.20;99.90;;;;;;5013969;28;20323;-65
2022/04/30 05:40:53;;;;;;;8.57;4.23;;;8.20;99.90;;;;;;5020601;28;20072;-65
2022/04/30 05:43:19;;;;;;;9.63;4.07;;;8.20;99.90;;;;;;5022919;28;20059;-66
2022/04/30 05:45:45;;;;;;;7.72;4.47;;;8.20;99.90;;;;;;5022000;28;20041;-65
2022/04/30 05:48:14;;;;;;;7.85;4.18;;;8.20;99.90;;;;;;5021289;28;20113;-65
2022/04/30 05:50:39;;;;;;;7.33;4.63;;;8.30;99.90;;;;;;5017021;28;20567;-65
2022/04/30 05:53:05;;;;;;;13.10;4.83;;;8.30;99.90;;;;;;5023265;28;20037;-65
2022/04/30 05:55:31;;;;;;;15.45;5.32;;;8.30;99.90;;;;;;5007986;28;20064;-65
2022/04/30 05:57:57;;;;;;;9.43;5.67;;;8.40;99.90;;;;;;5015384;28;20064;-64
2022/04/30 06:00:23;;;;;;;13.70;5.80;;;8.40;99.90;;;;;;5026835;22;20450;-86
2022/04/30 06:02:49;;;;;;;8.95;5.00;;;8.40;99.90;;;;;;5045356;28;20097;-86
2022/04/30 06:05:37;;;;;;;10.93;5.70;;;8.50;99.90;;;;;;5042009;28;20041;-87
2022/04/30 06:08:28;;;;;;;7.95;5.18;;;8.50;99.90;;;;;;5042899;28;20117;-86
2022/04/30 06:10:57;;;;;;;12.10;5.32;;;8.50;99.90;;;;;;5040964;28;20060;-86
2022/04/30 06:13:40;;;;;;;10.02;5.32;;;8.60;99.90;;;;;;5045377;28;20044;-86
2022/04/30 06:19:50;;;;;;;15.27;5.03;;;8.70;99.90;;;;;;4988305;28;20046;-86
2022/04/30 06:23:09;;;;;;;10.18;5.50;;;8.70;99.90;;;;;;4977672;28;20041;-87
2022/04/30 06:25:39;;;;;;;7.20;5.03;;;8.80;99.90;;;;;;4946456;28;20635;-86
2022/04/30 06:28:10;;;;;;;8.75;5.05;;;8.80;99.90;;;;;;4963625;28;20576;-86
2022/04/30 06:30:54;;;;;;;10.73;4.30;;;8.70;99.90;;;;;;4995468;28;20049;-86
2022/04/30 06:33:38;;;;;;;9.57;5.03;;;8.90;99.90;;;;;;5005578;28;20052;-86
2022/04/30 06:36:18;;;;;;;6.43;4.18;;;8.90;99.90;;;;;;5005858;28;20784;-85
2022/04/30 06:38:44;;;;;;;12.63;4.85;;;9.00;99.90;;;;;;5034372;28;20386;-86
2022/04/30 06:41:09;;;;;;;9.50;4.60;;;9.00;99.90;;;;;;5041121;28;20112;-86
2022/04/30 06:43:38;;;;;;;8.33;4.40;;;9.00;99.90;;;;;;5035742;28;20045;-86
2022/04/30 06:46:11;;;;;;;12.80;5.55;;;9.00;99.90;;;;;;5038041;28;20041;-85
2022/04/30 06:48:40;;;;;;;8.73;5.20;;;9.00;99.90;;;;;;5022358;28;20072;-86
2022/04/30 06:51:06;;;;;;;14.13;5.38;;;9.00;99.90;;;;;;5027977;28;20045;-85
2022/04/30 06:57:11;;;;;;;11.35;5.38;;;9.00;99.90;;;;;;5024371;28;20373;-86
2022/04/30 07:02:22;;;;;;;10.25;6.05;;;9.10;99.90;;;;;;5038362;22;20461;-68
2022/04/30 07:04:52;;;;;;;11.27;5.50;;;9.00;99.90;;;;;;5040131;28;20163;-68
2022/04/30 07:07:21;;;;;;;11.50;5.53;;;9.10;99.90;;;;;;5023892;28;20045;-68
2022/04/30 07:09:47;;;;;;;9.43;5.88;;;9.20;99.90;;;;;;5032044;28;20033;-68
2022/04/30 07:12:14;;;;;;;11.18;6.45;;;9.20;99.90;;;;;;5025591;28;20030;-68
2022/04/30 07:14:41;;;;;;;10.98;6.13;;;9.20;99.90;;;;;;5018256;28;20080;-68
2022/04/30 07:17:12;;;;;;;8.15;4.75;;;9.30;99.90;;;;;;5014615;28;20772;-69
2022/04/30 07:19:37;;;;;;;9.98;5.75;;;9.40;99.90;;;;;;5036879;28;20389;-69
2022/04/30 07:22:04;;;;;;;18.20;6.03;;;9.50;99.90;;;;;;5035903;28;20029;-69
2022/04/30 07:24:31;;;;;;;12.13;4.97;;;9.60;99.90;;;;;;5017196;28;20127;-69
2022/04/30 07:26:56;;;;;;;10.82;4.82;;;9.60;99.90;;;;;;5026414;28;20051;-69
2022/04/30 07:29:22;;;;;;;10.20;5.50;;;9.70;99.90;;;;;;5030697;28;20041;-69
2022/04/30 07:31:48;;;;;;;17.07;5.63;;;9.80;99.90;;;;;;5023046;28;20045;-69
2022/04/30 07:34:14;;;;;;;10.37;5.07;;;9.90;99.90;;;;;;5033460;28;20579;-69
2022/04/30 07:36:40;;;;;;;13.27;5.70;;;10.00;99.90;;;;;;5027077;28;20037;-69
2022/04/30 07:39:06;;;;;;;11.68;5.10;;;10.00;99.90;;;;;;5026597;28;20041;-69
2022/04/30 07:41:32;;;;;;;12.05;4.88;;;10.10;99.90;;;;;;5044268;28;20094;-69
2022/04/30 07:43:57;;;;;;;9.77;4.97;;;10.20;99.90;;;;;;5041025;28;20523;-69
2022/04/30 07:46:23;;;;;;;14.10;5.83;;;10.20;99.90;;;;;;5027057;28;20107;-69
2022/04/30 07:48:50;;;;;;;7.72;5.03;;;10.20;99.90;;;;;;5024668;28;20041;-69
2022/04/30 07:51:18;;;;;;;6.93;5.10;;;10.20;99.90;;;;;;5036590;28;20414;-69
2022/04/30 07:53:45;;;;;;;9.65;5.18;;;10.20;99.90;;;;;;5050537;28;20036;-69
2022/04/30 07:56:11;;;;;;;8.60;4.70;;;10.20;99.90;;;;;;5037582;28;20123;-67
2022/04/30 07:58:37;;;;;;;10.75;5.50;;;10.20;99.90;;;;;;5036887;28;20044;-66
2022/04/30 08:01:03;;;;;;;15.45;4.82;;;10.20;99.90;;;;;;5043931;28;20049;-67
2022/04/30 08:03:29;;;;;;;10.77;4.82;;;10.20;99.90;;;;;;5046763;28;20041;-67
2022/04/30 08:05:55;;;;;;;13.13;5.40;;;10.20;99.90;;;;;;5041698;28;20498;-67
2022/04/30 08:08:20;;;;;;;12.57;5.97;;;10.20;99.90;;;;;;5023348;28;20045;-66
2022/04/30 08:10:46;;;;;;;9.03;4.73;;;10.10;99.90;;;;;;5050812;28;20504;-66
2022/04/30 08:13:12;;;;;;;9.33;5.17;;;10.10;99.90;;;;;;5044923;28;20074;-67
2022/04/30 08:15:43;;;;;;;9.97;5.30;;;10.10;99.90;;;;;;5042356;28;20110;-66
2022/04/30 08:18:10;;;;;;;10.88;4.88;;;10.10;99.90;;;;;;5045737;28;20314;-66
2022/04/30 08:20:37;;;;;;;8.07;5.10;;;10.00;99.90;;;;;;5041147;28;20057;-67
2022/04/30 08:23:04;;;;;;;11.20;4.90;;;10.10;99.90;;;;;;5041368;28;20037;-66
2022/04/30 08:25:30;;;;;;;13.45;5.35;;;10.00;99.90;;;;;;5012760;28;20090;-66
2022/04/30 08:27:55;;;;;;;10.13;5.50;;;10.00;99.90;;;;;;5040942;28;20497;-66
2022/04/30 08:30:21;;;;;;;8.63;5.37;;;10.00;99.90;;;;;;5041340;28;20040;-66
2022/04/30 08:32:48;;;;;;;9.43;5.10;;;10.00;99.90;;;;;;5043834;28;20473;-66
2022/04/30 08:35:14;;;;;;;13.40;5.85;;;10.00;99.90;;;;;;5040484;28;20044;-67
2022/04/30 08:37:40;;;;;;;10.82;5.35;;;10.00;99.90;;;;;;5038294;28;25507;-67
2022/04/30 08:40:06;;;;;;;15.10;6.87;;;10.00;99.90;;;;;;5043174;28;20417;-67
2022/04/30 08:42:32;;;;;;;10.00;5.63;;;9.90;99.90;;;;;;5027659;28;20044;-67
2022/04/30 08:45:01;;;;;;;14.40;6.90;;;9.90;99.90;;;;;;5041521;28;20041;-67
2022/04/30 08:47:29;;;;;;;14.15;6.72;;;9.90;99.90;;;;;;5048781;28;20261;-67
2022/04/30 08:49:57;;;;;;;11.45;6.55;;;9.90;99.90;;;;;;5045011;28;20378;-67
2022/04/30 08:52:22;;;;;;;14.70;6.25;;;9.90;99.90;;;;;;5044295;28;20135;-67
2022/04/30 08:54:48;;;;;;;12.77;6.93;;;10.00;99.90;;;;;;5043365;28;20164;-67
2022/04/30 08:57:15;;;;;;;13.83;6.03;;;9.90;99.90;;;;;;5027913;28;20302;-67
2022/04/30 08:59:42;;;;;;;12.93;6.25;;;9.90;99.90;;;;;;5040620;28;20045;-67
2022/04/30 09:02:09;;;;;;;12.70;6.75;;;9.90;99.90;;;;;;5048062;28;20044;-67
2022/04/30 09:04:43;;;;;;;14.23;6.28;;;9.90;99.90;;;;;;5041851;28;20323;-67
2022/04/30 09:07:20;;;;;;;14.25;6.80;;;9.90;99.90;;;;;;5029502;28;20036;-67
2022/04/30 09:10:00;;;;;;;12.32;6.60;;;9.90;99.90;;;;;;5026128;28;20040;-67
2022/04/30 09:12:29;;;;;;;14.43;7.03;;;9.90;99.90;;;;;;5046556;28;20117;-67
2022/04/30 09:14:55;;;;;;;10.45;6.25;;;9.90;99.90;;;;;;5043319;28;20044;-67
2022/04/30 09:17:26;;;;;;;12.43;6.70;;;9.90;99.90;;;;;;5018857;28;20631;-67
2022/04/30 09:19:53;;;;;;;10.43;6.53;;;9.90;99.90;;;;;;5028857;28;20095;-67
2022/04/30 09:22:30;;;;;;;;;;;9.90;99.90;;;;;;5042800;28;20052;-67
2022/04/30 09:24:59;;;;;;;9.03;5.27;;;9.90;99.90;;;;;;5027961;28;19933;-67
2022/04/30 09:27:25;;;;;;;11.32;7.18;;;9.90;99.90;;;;;;5035268;28;20061;-67
2022/04/30 09:29:51;;;;;;;9.00;5.80;;;9.90;99.90;;;;;;5033249;28;20087;-67
2022/04/30 09:32:24;;;;;;;11.82;6.25;;;9.90;99.90;;;;;;5032108;28;20029;-67
2022/04/30 09:37:41;;;;;;;11.93;5.88;;;10.00;99.90;;;;;;5038617;28;20256;-67
2022/04/30 09:40:16;;;;;;;12.07;5.75;;;9.90;99.90;;;;;;5042452;28;20036;-67
2022/04/30 09:42:46;;;;;;;10.38;6.00;;;9.90;99.90;;;;;;5022210;28;20041;-67
2022/04/30 09:45:26;;;;;;;10.55;5.97;;;10.00;99.90;;;;;;5036157;28;20558;-67
2022/04/30 09:47:54;;;;;;;11.60;6.22;;;10.00;99.90;;;;;;5024286;28;20045;-67
2022/04/30 09:55:53;;;;;;;13.23;6.28;;;10.20;99.90;;;;;;5027499;28;20471;-67
2022/04/30 09:58:27;;;;;;;10.80;5.55;;;10.10;99.90;;;;;;5024645;28;20052;-67
2022/04/30 10:00:58;;;;;;;11.75;6.45;;;10.20;99.90;;;;;;5035534;28;20523;-68
2022/04/30 10:03:34;;;;;;;12.55;6.47;;;10.20;99.90;;;;;;5022768;28;20489;-67
2022/04/30 10:06:02;;;;;;;9.52;5.78;;;10.20;99.90;;;;;;5040750;28;20083;-67
2022/04/30 10:08:35;;;;;;;9.93;5.68;;;10.30;99.90;;;;;;5044443;28;20041;-67
2022/04/30 10:11:32;;;;;;;10.95;5.47;;;10.20;99.90;;;;;;5025222;28;20047;-67
2022/04/30 10:14:31;;;;;;;12.07;5.90;;;10.20;99.90;;;;;;5041358;28;20413;-67
2022/04/30 10:17:16;;;;;;;11.50;4.80;;;10.20;99.90;;;;;;5039880;28;20036;-67
2022/04/30 10:19:43;;;;;;;7.75;5.30;;;10.20;99.90;;;;;;5036982;28;20063;-67
2022/04/30 10:22:11;;;;;;;8.60;4.90;;;10.20;99.90;;;;;;5041938;28;20090;-67
2022/04/30 10:24:42;;;;;;;13.38;4.88;;;10.30;99.90;;;;;;5044612;28;20505;-67
2022/04/30 10:27:08;;;;;;;9.90;4.72;;;10.30;99.90;;;;;;5038259;28;20037;-67
2022/04/30 10:29:33;;;;;;;7.13;4.17;;;10.40;99.90;;;;;;5041888;28;20527;-67
2022/04/30 10:31:59;;;;;;;8.93;4.23;;;10.50;99.90;;;;;;5039803;28;20287;-67
2022/04/30 10:34:29;;;;;;;7.90;4.30;;;10.40;99.90;;;;;;5038051;28;20048;-67
2022/04/30 10:36:55;;;;;;;8.50;4.75;;;10.40;99.90;;;;;;5039741;28;20045;-67
2022/04/30 10:39:21;;;;;;;9.83;4.13;;;10.40;99.90;;;;;;5039868;28;20181;-67
2022/04/30 10:41:50;;;;;;;9.97;5.03;;;10.40;99.90;;;;;;5044797;28;20334;-68
2022/04/30 10:44:26;;;;;;;8.52;5.28;;;10.40;99.90;;;;;;5043341;28;20072;-67
2022/04/30 10:46:52;;;;;;;6.25;4.40;;;10.40;99.90;;;;;;5027596;28;20332;-67
2022/04/30 10:49:18;;;;;;;10.82;5.00;;;10.50;99.90;;;;;;5038229;28;20050;-67
2022/04/30 10:51:45;;;;;;;7.10;4.17;;;10.50;99.90;;;;;;5047355;28;20434;-66
2022/04/30 10:54:18;;;;;;;7.75;3.78;;;10.50;99.90;;;;;;5037927;28;20073;-66
2022/04/30 10:56:45;;;;;;;11.38;3.97;;;10.50;99.90;;;;;;5023281;28;20041;-67
2022/04/30 10:59:20;;;;;;;6.93;3.58;;;10.50;99.90;;;;;;5037216;28;20047;-66
2022/04/30 11:01:49;;;;;;;8.02;3.67;;;10.50;99.90;;;;;;5046659;28;20040;-66
2022/04/30 11:04:22;;;;;;;8.60;3.55;;;10.60;99.90;;;;;;5040832;28;20407;-66
2022/04/30 11:06:53;;;;;;;7.43;3.75;;;10.60;99.90;;;;;;5044584;28;20033;-66
2022/04/30 11:09:20;;;;;;;5.60;3.67;;;10.60;99.90;;;;;;5033654;28;20029;-66
2022/04/30 11:11:47;;;;;;;8.30;3.85;;;10.60;99.90;;;;;;5044934;28;20037;-66
2022/04/30 11:14:13;;;;;;;6.95;3.45;;;10.70;99.90;;;;;;5051509;28;20041;-66
2022/04/30 11:16:47;;;;;;;8.95;3.97;;;10.80;99.90;;;;;;5044323;28;20465;-67
2022/04/30 11:19:15;;;;;;;8.07;3.33;;;10.90;99.90;;;;;;5049243;28;20045;-67
2022/04/30 11:21:47;;;;;;;7.80;3.70;;;11.00;99.90;;;;;;5047373;28;20068;-66
2022/04/30 11:24:31;;;;;;;6.10;3.22;;;11.10;99.90;;;;;;5044183;28;20405;-67
2022/04/30 11:27:15;;;;;;;6.85;3.58;;;11.20;99.90;;;;;;5015439;28;20116;-66
2022/04/30 11:29:52;;;;;;;5.57;3.17;;;11.30;99.90;;;;;;5040954;28;20480;-66
2022/04/30 11:32:26;;;;;;;5.63;2.85;;;11.40;99.90;;;;;;5044497;28;20044;-66
2022/04/30 11:35:00;;;;;;;6.93;3.88;;;11.50;99.90;;;;;;5047233;28;20119;-67
2022/04/30 11:37:26;;;;;;;5.13;2.90;;;11.60;99.90;;;;;;5039306;28;20048;-67
2022/04/30 11:39:52;;;;;;;6.32;2.80;;;11.70;99.90;;;;;;5019693;28;20040;-67
2022/04/30 11:42:23;;;;;;;5.03;3.13;;;11.80;99.90;;;;;;5047258;28;20036;-66
2022/04/30 11:44:53;;;;;;;4.85;3.03;;;11.80;99.90;;;;;;5040601;28;20502;-67
2022/04/30 11:47:20;;;;;;;6.72;4.18;;;11.90;99.90;;;;;;5040292;28;20029;-66
2022/04/30 11:49:46;;;;;;;8.10;3.45;;;11.90;99.90;;;;;;5047478;28;20043;-67
2022/04/30 11:52:13;;;;;;;8.18;4.38;;;12.00;99.90;;;;;;5038161;28;20439;-67
2022/04/30 11:54:39;;;;;;;7.68;3.45;;;12.10;99.90;;;;;;5042301;28;20040;-66
2022/04/30 11:57:06;;;;;;;6.15;3.42;;;12.10;99.90;;;;;;5028665;28;20227;-67
2022/04/30 11:59:37;;;;;;;10.07;3.20;;;12.20;99.90;;;;;;5022207;28;20044;-66
2022/04/30 12:02:08;;;;;;;9.02;3.80;;;12.20;99.90;;;;;;5024980;28;20106;-67
2022/04/30 12:04:36;;;;;;;6.05;2.95;;;12.20;99.90;;;;;;5053332;22;20049;-68
2022/04/30 12:07:05;;;;;;;5.38;2.88;;;12.20;99.90;;;;;;4991987;28;20054;-68
2022/04/30 12:09:32;;;;;;;6.28;2.60;;;12.20;99.90;;;;;;5019619;28;20042;-67
2022/04/30 12:12:00;;;;;;;4.00;2.50;;;12.20;99.90;;;;;;4996631;28;20099;-68
2022/04/30 12:14:26;;;;;;;4.20;2.55;;;12.30;99.90;;;;;;5023265;28;20044;-68
2022/04/30 12:16:53;;;;;;;4.90;2.45;;;12.40;99.60;;;;;;5017755;28;20076;-67
2022/04/30 12:24:40;;;;;;;5.15;2.83;;;12.40;99.00;;;;;;5019227;28;20044;-67
2022/04/30 12:25:28;;;;;;;5.07;2.70;;;12.50;99.30;;;;;;5003766;28;20053;-67
2022/04/30 12:27:56;;;;;;;5.63;3.20;;;12.50;99.00;;;;;;5014308;28;20738;-67
2022/04/30 12:30:23;;;;;;;5.20;2.90;;;12.50;98.40;;;;;;5010185;28;20041;-68
2022/04/30 12:33:05;;;;;;;5.95;3.05;;;12.50;97.30;;;;;;5020916;28;20041;-67
2022/04/30 12:35:38;;;;;;;3.85;2.80;;;12.50;96.30;;;;;;4999426;28;20041;-67
2022/04/30 12:38:14;;;;;;;6.03;2.88;;;12.40;96.80;;;;;;5011762;28;20414;-67
2022/04/30 12:40:43;;;;;;;6.53;4.18;;;12.40;96.80;;;;;;5012075;28;20481;-67
2022/04/30 12:43:09;;;;;;;7.25;4.38;;;12.30;99.30;;;;;;5008083;28;20077;-67
2022/04/30 12:45:37;;;;;;;8.23;4.70;;;12.20;99.90;;;;;;5016031;28;20041;-68
2022/04/30 12:48:04;;;;;;;10.00;5.22;;;12.20;99.90;;;;;;5009518;28;20064;-67
2022/04/30 12:50:32;;;;;;;9.32;4.88;;;12.10;99.90;;;;;;5017209;28;20060;-67
2022/04/30 12:52:58;;;;;;;13.48;6.38;;;12.00;99.90;;;;;;5012569;28;20044;-67
2022/04/30 12:55:23;;;;;;;10.57;4.97;;;11.90;99.90;;;;;;4992994;28;20041;-68
2022/04/30 12:57:49;;;;;;;8.80;4.72;;;11.90;99.90;;;;;;5017427;28;20297;-68
2022/04/30 13:00:16;;;;;;;8.37;4.87;;;11.80;99.90;;;;;;5019501;28;20036;-67
2022/04/30 13:02:43;;;;;;;11.98;4.50;;;11.80;99.90;;;;;;5024656;28;20474;-67
2022/04/30 13:05:09;;;;;;;;;;;11.80;99.90;;;;;;5012986;28;20064;-67
2022/04/30 13:07:38;;;;;;;7.15;4.43;;;11.70;99.90;;;;;;5015749;28;19920;-68
2022/04/30 13:15:38;;;;;;;7.68;3.65;;;11.60;99.90;;;;;;5015128;28;20037;-68
2022/04/30 13:18:04;;;;;;;11.30;4.30;;;11.60;99.90;;;;;;4990481;28;20065;-67
2022/04/30 13:20:30;;;;;;;11.25;4.35;;;11.50;99.90;;;;;;5023316;28;20041;-68
2022/04/30 13:22:59;;;;;;;8.60;5.28;;;11.50;99.90;;;;;;5009455;28;20067;-68
2022/04/30 13:25:25;;;;;;;8.98;4.93;;;11.50;99.90;;;;;;5014404;28;20038;-67
2022/04/30 13:27:51;;;;;;;;;;;11.50;99.90;;;;;;5013400;28;20091;-67
2022/04/30 13:30:18;;;;;;;10.70;4.55;;;11.50;99.90;;;;;;5008585;28;19933;-68
2022/04/30 13:32:44;;;;;;;6.53;4.05;;;11.50;99.90;;;;;;5012804;28;20029;-68
2022/04/30 13:35:10;;;;;;;6.60;3.65;;;11.40;99.90;;;;;;5010803;28;20095;-67
2022/04/30 13:37:40;;;;;;;8.00;4.37;;;11.50;99.90;;;;;;4993534;28;20048;-68
2022/04/30 13:40:13;;;;;;;8.30;4.80;;;11.50;99.90;;;;;;4981836;28;21241;-68
2022/04/30 13:42:39;;;;;;;7.43;4.65;;;11.50;99.90;;;;;;5003587;28;20387;-67